This is the latest recevied weather packets stored in our database for station/object GW1572. If no packets are shown the sender has not sent any weather packets the latest 10 day(s).
| Time | Temp. | Humidity | Pressure | Rain* | Wind** | Luminosity | Snow |
|---|---|---|---|---|---|---|---|
| 1777836981 | 17.22° C | 35% | 1009.1 hPa | 0 mm | - | - | - |
| 1777836643 | 17.22° C | 37% | 1009.1 hPa | 0 mm | - | - | - |
| 1777832334 | 16.67° C | 38% | 1010.4 hPa | 0 mm | - | - | - |
| 1777830500 | 17.22° C | 40% | 1011.1 hPa | 0 mm | - | - | - |
| 1777824410 | 13.89° C | 46% | 1011.8 hPa | 0 mm | - | - | - |
| 1777823677 | 13.33° C | 45% | 1012.1 hPa | 0 mm | - | - | - |
| 1777821138 | 12.22° C | 47% | 1012.1 hPa | 0 mm | - | - | - |
| 1777820790 | 11.67° C | 49% | 1012.5 hPa | 0 mm | - | - | - |
| 1777820078 | 11.67° C | 53% | 1012.5 hPa | 0 mm | - | - | - |
| 1777818641 | 10.56° C | 62% | 1012.5 hPa | 0 mm | - | - | - |
| 1777816828 | 9.44° C | 62% | 1012.5 hPa | 0 mm | - | - | - |
| 1777808179 | -0.56° C | 99% | 1012.1 hPa | 0 mm | - | - | - |
| 1777807091 | -0.56° C | 99% | 1012.1 hPa | 0 mm | - | - | - |
| 1777804936 | -1.11° C | 99% | 1011.5 hPa | 0 mm | - | - | - |
| 1777802774 | -0.56° C | 99% | 1011.5 hPa | 0 mm | - | - | - |
| 1777798814 | -0.56° C | 99% | 1010.8 hPa | 0 mm | - | - | - |
| 1777797760 | -0.56° C | 98% | 1011.1 hPa | 0 mm | - | - | - |
| 1777797038 | -0.56° C | 98% | 1011.1 hPa | 0 mm | - | - | - |
| 1777796691 | -0.56° C | 98% | 1011.1 hPa | 0 mm | - | - | - |
| 1777791983 | 0° C | 97% | 1010.4 hPa | 0 mm | - | - | - |
| 1777789092 | 1.11° C | 96% | 1010.4 hPa | 0 mm | - | - | - |
| 1777786957 | 1.11° C | 95% | 1010.4 hPa | 0 mm | - | - | - |
| 1777786583 | 1.11° C | 95% | 1010.4 hPa | 0 mm | - | - | - |
| 1777786251 | 1.67° C | 95% | 1010.4 hPa | 0 mm | - | - | - |
| 1777785535 | 1.67° C | 94% | 1010.4 hPa | 0 mm | - | - | - |
* Rain since midnight (hover to see other rain measurements)
** Current wind speed in m/s (hover to see current wind gust speed)